Nearby METAR Reports

 

KSJC - San Jose, California, USA
Distance from station: NE 14km
Updated: 03/07/2020 07:53
Few Clouds
Few Clouds
 Wind from SSE
Wind: SSE 15 km/h
Temperature: 15°C
Dew Point: 10°C
Humidity: 72%
Barometer: 1016.3 hPa
Clouds: Few Clouds
Visibility: 16 km
Cloud details: Few Clouds 366 m
2020/07/03 14:53 KSJC 031453Z 15008KT 10SM FEW012 15/10 A3001 RMK AO2 SLP162 T01500100 53016
KNUQ - Moffett Nas/Mtn, California, USA
Distance from station: N 14km
Updated: 03/07/2020 06:55
NOT Current
Clear
Clear
 Wind from calm
Wind: Calm
Temperature: 14°C
Dew Point: 10°C
Humidity: 77%
Barometer: 1015.9 hPa
Clouds: Clear
Visibility: 16 km
2020/07/03 13:55 KNUQ 031355Z AUTO 00000KT 10SM CLR 14/10 A3000 RMK AO2